AGGH/HIR METAR and TAF weather

Enter ICAO airport designator
Station Type Date Time Source
AGGH METAR 2020/09/27 17:00 UTC NOAA

AGGH 271700Z 14004KT 9999 FEW014 FEW015CB SCT028 BKN100 23/23 Q1008


Station Type Date Time Source
AGGH Decoded METAR 2020/09/27 17:00 UTC NOAA

Honiara / Henderson, Solomon Islands (AGGH) 09-25S 160-03E 9M
Sep 27, 2020 - 01:00 PM EDT / 2020.09.27 1700 UTC
Wind: from the SE (140 degrees) at 5 MPH (4 KT):0
Visibility: greater than 7 mile(s):0
Sky conditions: mostly cloudy
Weather: Cumulonimbus clouds observed
Temperature: 73 F (23 C)
Dew Point: 73 F (23 C)
Relative Humidity: 100%
Pressure (altimeter): 29.77 in. Hg (1008 hPa)
ob: AGGH 271700Z 14004KT 9999 FEW014 FEW015CB SCT028 BKN100 23/23 Q1008
cycle: 17

Station Type Date Time Source
AGGH TAF 2020/09/27 12:09 UTC NOAA

TAF TAF AGGH 271100Z 2712/2812 09015KT 9999 -SHRA SCT016 BKN028 INTER 2712/2718 5000 TSSH BKN015 FEW016CB T 24 23 23 23 Q 1013 1011 1010 1012

Example: see airport list